Flight Track Log - Related Links

Times and Time Zones

All times are in EDT time to prevent confusion due to time zone crossing. See the N789EX flight status page for this flight to view local times or setup timezone preferences in your user account.

Time Position Orientation Groundspeed Altitude Reporting Facility
EDT Latitude Longitude Course Direction KTS MPH feet Rate Location/Type
Sat 12:20:24 PM 47.4879 -122.2620 144° Southeast 206 237 1,600  Level FlightAware ADS-B
Sat 12:20:40 PM 47.4749 -122.2480 144° Southeast 226 260 2,000 1,800 Climbing FlightAware ADS-B
Sat 12:20:54 PM 47.4625 -122.2350 144° Southeast 237 273 2,500 2,276 Climbing FlightAware ADS-B
Sat 12:21:09 PM 47.4489 -122.2200 143° Southeast 247 284 3,100 2,786 Climbing FlightAware ADS-B
Sat 12:21:22 PM 47.4371 -122.2070 143° Southeast 248 285 3,800 3,375 Climbing FlightAware ADS-B
Sat 12:21:25 PM 47.4343 -122.2040 145° Southeast 248 285 4,000 4,000 Climbing FlightAware ADS-B
Sat 12:21:28 PM 47.4312 -122.2010 147° Southeast 248 285 4,200 3,429 Climbing FlightAware ADS-B
Sat 12:21:32 PM 47.4273 -122.1970 150° Southeast 246 283 4,400 3,429 Climbing FlightAware ADS-B
Sat 12:21:35 PM 47.4243 -122.1950 153° Southeast 246 283 4,600 3,429 Climbing FlightAware ADS-B
Sat 12:21:39 PM 47.4202 -122.1920 156° South 244 281 4,800 2,571 Climbing FlightAware ADS-B
Sat 12:21:42 PM 47.4170 -122.1900 159° South 242 278 4,900 2,000 Climbing FlightAware ADS-B
Sat 12:21:45 PM 47.4138 -122.1890 162° South 241 277 5,000 1,714 Climbing FlightAware ADS-B
Sat 12:21:49 PM 47.4099 -122.1870 167° South 241 277 5,100 2,250 Climbing FlightAware ADS-B
Sat 12:21:53 PM 47.4053 -122.1860 171° South 242 278 5,300 2,182 Climbing FlightAware ADS-B
Sat 12:22:00 PM 47.3974 -122.1850 173° South 246 283 5,500 2,333 Climbing FlightAware ADS-B
Sat 12:22:11 PM 47.3848 -122.1830 174° South 246 283 6,000 2,348 Climbing FlightAware ADS-B
Sat 12:22:23 PM 47.3712 -122.1810 174° South 245 282 6,400 1,500 Climbing FlightAware ADS-B
Sat 12:22:35 PM 47.3577 -122.1780 172° South 246 283 6,600 720 Climbing FlightAware ADS-B
Sat 12:22:48 PM 47.3433 -122.1750 171° South 248 285 6,700 250 Climbing FlightAware ADS-B
Sat 12:22:59 PM 47.3305 -122.1720 172° South 247 284 6,700  Level FlightAware ADS-B
Sat 12:23:02 PM 47.3271 -122.1720 174° South 246 283 6,700  Level FlightAware ADS-B
Sat 12:23:07 PM 47.3223 -122.1710 180° South 244 281 6,700  Level FlightAware ADS-B
Sat 12:23:10 PM 47.3183 -122.1720 187° South 240 276 6,700  Level FlightAware ADS-B
Sat 12:23:13 PM 47.3149 -122.1730 194° South 237 273 6,700  Level FlightAware ADS-B
Sat 12:23:17 PM 47.3112 -122.1750 201° Southwest 234 269 6,700  Level FlightAware ADS-B
Sat 12:23:20 PM 47.3079 -122.1780 211° Southwest 232 267 6,700  Level FlightAware ADS-B
Sat 12:23:24 PM 47.3048 -122.1810 221° Southwest 233 268 6,700  Level FlightAware ADS-B
Sat 12:23:28 PM 47.3021 -122.1860 231° Southwest 234 269 6,700  Level FlightAware ADS-B
Sat 12:23:32 PM 47.2996 -122.1920 241° Southwest 236 272 6,700  Level FlightAware ADS-B
Sat 12:23:36 PM 47.2981 -122.1980 251° West 239 275 6,700  Level FlightAware ADS-B
Sat 12:23:39 PM 47.2972 -122.2030 258° West 241 277 6,700  Level FlightAware ADS-B
Sat 12:23:43 PM 47.2968 -122.2090 266° West 245 282 6,700  Level FlightAware ADS-B
Sat 12:23:46 PM 47.2967 -122.2140 269° West 247 284 6,700  Level FlightAware ADS-B
Sat 12:23:51 PM 47.2969 -122.2230 273° West 249 287 6,700  Level FlightAware ADS-B
Sat 12:24:06 PM 47.2982 -122.2490 274° West 251 289 6,700  Level FlightAware ADS-B
Sat 12:24:20 PM 47.2993 -122.2720 274° West 253 291 6,700  Level FlightAware ADS-B
Sat 12:24:28 PM 47.2997 -122.2860 271° West 251 289 6,700  Level FlightAware ADS-B
Sat 12:24:38 PM 47.2994 -122.3030 267° West 250 288 6,700  Level FlightAware ADS-B
Sat 12:24:45 PM 47.2988 -122.3150 265° West 249 287 6,700  Level FlightAware ADS-B
Sat 12:24:50 PM 47.2980 -122.3230 262° West 247 284 6,700  Level FlightAware ADS-B
Sat 12:24:56 PM 47.2970 -122.3320 259° West 246 283 6,700  Level FlightAware ADS-B
Sat 12:25:07 PM 47.2944 -122.3520 259° West 248 285 6,700  Level FlightAware ADS-B
Sat 12:25:20 PM 47.2917 -122.3730 259° West 247 284 6,700  Level FlightAware ADS-B
Sat 12:25:35 PM 47.2885 -122.3980 259° West 248 285 6,700  Level FlightAware ADS-B
Sat 12:25:51 PM 47.2851 -122.4230 259° West 247 284 6,700  Level FlightAware ADS-B
Sat 12:26:06 PM 47.2816 -122.4490 259° West 247 284 6,700  Level FlightAware ADS-B
Sat 12:26:21 PM 47.2784 -122.4730 259° West 239 275 6,700 194 Level FlightAware ADS-B
Sat 12:26:37 PM 47.2751 -122.4970 259° West 232 267 6,800 1,548 Climbing FlightAware ADS-B
Sat 12:26:52 PM 47.2719 -122.5210 258° West 232 267 7,500 2,903 Climbing FlightAware ADS-B
Sat 12:27:08 PM 47.2686 -122.5450 259° West 234 269 8,300 2,813 Climbing FlightAware ADS-B
Sat 12:27:24 PM 47.2652 -122.5700 259° West 237 273 9,000 2,710 Climbing FlightAware ADS-B
Sat 12:27:39 PM 47.2619 -122.5940 259° West 242 278 9,700 2,400 Climbing FlightAware ADS-B
Sat 12:28:14 PM 47.2541 -122.6520 259° West 252 290 11,000 1,607 Climbing FlightAware ADS-B
Sat 12:28:35 PM 47.2497 -122.6838 259° West 290 334 11,200 774 Climbing FlightAware ADS-B (CYVR)
Sat 12:28:45 PM 47.2460 -122.7110 259° West 295 339 11,400 1,500 Climbing FlightAware ADS-B
Sat 12:29:15 PM 47.2375 -122.7730 259° West 320 368 12,200 2,000 Climbing FlightAware ADS-B
Sat 12:29:45 PM 47.2286 -122.8380 259° West 328 377 13,400 2,459 Climbing FlightAware ADS-B
Sat 12:30:16 PM 47.2194 -122.9050 258° West 334 384 14,700 2,419 Climbing FlightAware ADS-B
Sat 12:30:47 PM 47.2098 -122.9730 258° West 338 389 15,900 2,300 Climbing FlightAware ADS-B
Sat 12:31:16 PM 47.2024 -123.0256 259° West 345 397 17,000 2,323 Climbing FlightAware ADS-B
Sat 12:31:18 PM 47.1997 -123.0450 258° West 345 397 17,100 1,946 Climbing FlightAware ADS-B
Sat 12:31:53 PM 47.1888 -123.1230 258° West 351 404 18,200 1,714 Climbing FlightAware ADS-B
Sat 12:32:21 PM 47.1788 -123.1940 258° West 366 421 18,900 1,667 Climbing FlightAware ADS-B
Sat 12:32:29 PM 47.1759 -123.2143 258° West 368 423 19,200 2,438 Climbing FlightAware ADS-B (CYVR)
Sat 12:32:53 PM 47.1675 -123.2730 258° West 367 422 20,200 2,516 Climbing FlightAware ADS-B
Sat 12:33:00 PM 47.1662 -123.2826 258° West 365 420 20,500 1,886 Climbing FlightAware ADS-B (CYVR)
Sat 12:33:28 PM 47.1556 -123.3570 258° West 366 421 21,300 1,333 Climbing FlightAware ADS-B
Sat 12:33:36 PM 47.1533 -123.3730 258° West 355 409 21,300  Level FlightAware ADS-B
Sat 12:33:43 PM 47.1500 -123.3930 256° West 352 405 21,300 -800 Level FlightAware ADS-B
Sat 12:34:06 PM 47.1414 -123.4337 250° West 347 399 20,900 -857 Descending FlightAware ADS-B
Sat 12:34:11 PM 47.1383 -123.4470 250° West 347 399 20,900 -2,471 Level FlightAware ADS-B
Sat 12:34:40 PM 47.1246 -123.4977 249° West 353 406 19,500 -3,000 Descending FlightAware ADS-B (CYVR)
Sat 12:34:41 PM 47.1181 -123.5220 249° West 352 405 19,400 -1,846 Descending FlightAware ADS-B
Sat 12:35:19 PM 47.0955 -123.6050 248° West 347 399 18,300 -1,714 Descending FlightAware ADS-B
Sat 12:35:23 PM 47.0928 -123.6140 246° West 343 395 18,200 -1,333 Descending FlightAware ADS-B
Sat 12:35:28 PM 47.0889 -123.6250 240° Southwest 341 392 18,100 -1,091 Descending FlightAware ADS-B
Sat 12:35:34 PM 47.0839 -123.6350 233° Southwest 341 392 18,000 -1,636 Descending FlightAware ADS-B
Sat 12:35:39 PM 47.0783 -123.6450 228° Southwest 340 391 17,800 -1,800 Descending FlightAware ADS-B
Sat 12:35:44 PM 47.0728 -123.6520 222° Southwest 341 392 17,700 -1,636 Descending FlightAware ADS-B
Sat 12:35:50 PM 47.0658 -123.6600 215° Southwest 342 394 17,500 -2,000 Descending FlightAware ADS-B
Sat 12:35:56 PM 47.0579 -123.6670 210° Southwest 344 396 17,300 -2,182 Descending FlightAware ADS-B
Sat 12:36:01 PM 47.0495 -123.6730 203° Southwest 347 399 17,100 -2,000 Descending FlightAware ADS-B
Sat 12:36:08 PM 47.0390 -123.6780 195° South 351 404 16,900 -1,500 Descending FlightAware ADS-B
Sat 12:36:13 PM 47.0307 -123.6800 189° South 354 407 16,800 -333 Descending FlightAware ADS-B
Sat 12:36:44 PM 46.9801 -123.6880 186° South 361 415 16,700 -94 Descending FlightAware ADS-B
Sat 12:37:17 PM 46.9254 -123.6970 186° South 360 414 16,700  Level FlightAware ADS-B
Sat 12:37:47 PM 46.8755 -123.7050 186° South 360 414 16,700  Level FlightAware ADS-B
Sat 12:38:17 PM 46.8254 -123.7130 186° South 361 415 16,700 -98 Level FlightAware ADS-B
Sat 12:38:48 PM 46.7758 -123.7210 186° South 354 407 16,600 -492 Descending FlightAware ADS-B
Sat 12:39:18 PM 46.7283 -123.7280 186° South 334 384 16,200 -800 Descending FlightAware ADS-B
Sat 12:39:48 PM 46.6833 -123.7360 186° South 316 364 15,800 -800 Descending FlightAware ADS-B
Sat 12:40:18 PM 46.6405 -123.7420 186° South 299 344 15,400 -692 Descending FlightAware ADS-B
Sat 12:40:40 PM 46.6113 -123.7470 186° South 292 336 15,200 -692 Descending FlightAware ADS-B
Sat 12:41:10 PM 46.5727 -123.7530 186° South 288 331 14,800 -400 Descending FlightAware ADS-B
Sat 12:41:40 PM 46.5321 -123.7600 186° South 278 320 14,800  Level FlightAware ADS-B
Sat 12:42:08 PM 46.5196 -123.7619 186° South 276 318 14,800  Level FlightAware ADS-B (SBFL / FLN)
Sat 12:42:10 PM 46.4941 -123.7660 186° South 274 315 14,800  Level FlightAware ADS-B
Sat 12:42:41 PM 46.4546 -123.7720 186° South 282 325 14,800  Level FlightAware ADS-B
Sat 12:43:12 PM 46.4139 -123.7790 186° South 290 334 14,800  Level FlightAware ADS-B
Sat 12:43:27 PM 46.3943 -123.7819 187° South 310 357 14,800  Level FlightAware ADS-B (SBFL / FLN)
Sat 12:43:59 PM 46.3434 -123.7900 186° South 337 388 14,800  Level FlightAware ADS-B
Sat 12:44:08 PM 46.3340 -123.7915 186° South 353 406 14,800  Level FlightAware ADS-B (SBFL / FLN)
Sat 12:44:30 PM 46.2943 -123.7970 186° South 354 407 14,800  Level FlightAware ADS-B
Sat 12:44:47 PM 46.2660 -123.8018 186° South 353 406 14,800  Level FlightAware ADS-B (SBFL / FLN)
Sat 12:45:01 PM 46.2431 -123.8050 186° South 351 404 14,800 -150 Level FlightAware ADS-B
Sat 12:45:27 PM 46.2042 -123.8115 186° South 342 394 14,700 -200 Descending FlightAware ADS-B (SBFL / FLN)
Sat 12:45:31 PM 46.1949 -123.8130 186° South 339 390 14,700 -150 Level FlightAware ADS-B
Sat 12:46:07 PM 46.1429 -123.8207 186° South 307 353 14,600 -98 Descending FlightAware ADS-B (SBFL / FLN)
Sat 12:46:32 PM 46.1086 -123.8260 186° South 319 367 14,600 -293 Level FlightAware ADS-B
Sat 12:46:48 PM 46.0913 -123.8279 185° South 270 311 14,400 -800 Descending FlightAware ADS-B (SBFL / FLN)
Sat 12:47:02 PM 46.0710 -123.8310 185° South 262 302 14,200 -1,050 Descending FlightAware ADS-B
Sat 12:47:28 PM 46.0405 -123.8343 185° South 257 296 13,700 -1,161 Descending FlightAware ADS-B (SBFL / FLN)
Sat 12:47:33 PM 46.0343 -123.8350 184° South 257 296 13,600 -973 Descending FlightAware ADS-B
Sat 12:48:05 PM 45.9968 -123.8390 185° South 258 297 13,100 -857 Descending FlightAware ADS-B
Sat 12:48:08 PM 45.9975 -123.8392 184° South 246 283 13,100 -429 Level FlightAware ADS-B (SBFL / FLN)
Sat 12:48:47 PM 45.9572 -123.8422 183° South 206 237 12,800 -1,320 Descending FlightAware ADS-B (SBFL / FLN)
Sat 12:48:58 PM 45.9429 -123.8430 183° South 217 250 12,000 -1,737 Descending FlightAware ADS-B
Sat 12:49:25 PM 45.9165 -123.8461 184° South 258 297 11,700 667 Descending FlightAware ADS-B (SBFL / FLN)
Sat 12:49:52 PM 45.8809 -123.8490 184° South 257 296 12,600 2,093 Climbing FlightAware ADS-B
Sat 12:50:08 PM 45.8705 -123.8502 183° South 255 293 13,200 1,692 Climbing FlightAware ADS-B (SBFL / FLN)
Sat 12:50:31 PM 45.8338 -123.8530 184° South 261 300 13,700 1,538 Climbing FlightAware ADS-B
Sat 12:50:47 PM 45.8177 -123.8550 184° South 270 311 14,200 968 Climbing FlightAware ADS-B (SBFL / FLN)
Sat 12:51:02 PM 45.7956 -123.8580 184° South 271 312 14,200 -732 Level FlightAware ADS-B
Sat 12:51:28 PM 45.7685 -123.8605 184° South 263 303 13,700 -1,219 Descending FlightAware ADS-B (SBFL / FLN)
Sat 12:52:06 PM 45.7186 -123.8654 184° South 259 298 12,900 -692 Descending FlightAware ADS-B (SBFL / FLN)
Sat 12:52:46 PM 45.6750 -123.8686 182° South 216 249 12,800 -1,610 Descending FlightAware ADS-B (SBFL / FLN)
Sat 12:53:28 PM 45.6371 -123.8696 183° South 231 266 10,700 -1,098 Descending FlightAware ADS-B (SBFL / FLN)
Sat 12:54:08 PM 45.5878 -123.8731 182° South 282 325 11,300 2,020 Climbing FlightAware ADS-B (SBFL / FLN)
Sat 12:55:06 PM 45.5121 -123.8818 194° South 284 327 14,000 1,740 Climbing FlightAware ADS-B (SBFL / FLN)
Sat 12:55:48 PM 45.4541 -123.9033 195° South 292 336 14,200 122 Climbing FlightAware ADS-B (SBFL / FLN)
Sat 12:56:44 PM 45.4236 -123.9149 195° South 286 329 14,200 -64 Level FlightAware ADS-B (SBFL / FLN)
Sat 12:57:22 PM 45.3358 -123.9496 196° South 274 315 14,100 -333 Descending FlightAware ADS-B (SBFL / FLN)
Sat 12:57:56 PM 45.2965 -123.9659 197° South 253 291 13,800 -909 Descending FlightAware ADS-B (SBFL / FLN)
Sat 12:58:28 PM 45.2586 -123.9822 197° South 251 289 13,100 -1,219 Descending FlightAware ADS-B (SBFL / FLN)
Sat 12:59:00 PM 45.2239 -123.9967 196° South 245 282 12,500 -243 Descending FlightAware ADS-B (SBFL / FLN)
Sat 12:59:42 PM 45.1869 -124.0128 196° South 244 281 12,800 118 Climbing Seattle Center
Sat 01:05:48 PM 45.3126 -124.1137 39° Northeast 310 357 13,300 -74 Climbing FlightAware ADS-B (SBFL / FLN)
Sat 01:06:28 PM 45.3551 -124.0653 38° Northeast 278 320 12,300 -2,795 Descending FlightAware ADS-B (SBFL / FLN)
Sat 01:07:01 PM 45.3835 -124.0333 38° Northeast 295 339 9,900 -176 Descending FlightAware ADS-B (SBFL / FLN)
Sat 01:08:10 PM 45.4730 -123.9514 24° Northeast 325 374 12,000 1,962 Climbing FlightAware ADS-B (SBFL / FLN)
Sat 01:08:45 PM 45.5139 -123.9298 14° North 330 380 13,300 2,262 Climbing FlightAware ADS-B (SBFL / FLN)
Sat 01:09:11 PM 45.5624 -123.9130 13° North 329 379 14,300 2,211 Climbing FlightAware ADS-B
Sat 01:09:23 PM 45.5797 -123.9100 North 324 373 14,700 2,000 Climbing FlightAware ADS-B
Sat 01:09:26 PM 45.5853 -123.9110 356° North 320 368 14,800 1,385 Climbing FlightAware ADS-B
Sat 01:09:36 PM 45.5983 -123.9140 344° North 309 356 15,000 1,286 Climbing FlightAware ADS-B
Sat 01:09:40 PM 45.6038 -123.9170 339° North 306 352 15,100 1,000 Climbing FlightAware ADS-B
Sat 01:09:48 PM 45.6135 -123.9250 329° Northwest 298 343 15,200 600 Climbing FlightAware ADS-B
Sat 01:09:50 PM 45.6150 -123.9268 323° Northwest 295 339 15,200 1,500 Level FlightAware ADS-B (SBFL / FLN)
Sat 01:09:52 PM 45.6177 -123.9300 322° Northwest 295 339 15,300 667 Climbing FlightAware ADS-B
Sat 01:09:59 PM 45.6244 -123.9400 312° West 292 336 15,300 667 Level FlightAware ADS-B
Sat 01:10:10 PM 45.6221 -123.9359 297° West 287 330 15,500 1,304 Climbing FlightAware ADS-B (SBFL / FLN)
Sat 01:10:22 PM 45.6364 -123.9790 299° West 289 333 15,800 1,333 Climbing FlightAware ADS-B
Sat 01:10:28 PM 45.6368 -123.9879 269° West 278 320 15,900 -1,773 Climbing FlightAware ADS-B (SBFL / FLN)
Sat 01:11:50 PM 45.6239 -124.1190 260° West 240 276 13,200 -1,714 Descending FlightAware ADS-B (SBFL / FLN)
Sat 01:12:27 PM 45.6193 -124.1548 259° West 198 228 12,500 -150 Descending FlightAware ADS-B (SBFL / FLN)
Sat 01:15:10 PM 45.5079 -124.2876 156° South 305 351 12,700 647 Climbing FlightAware ADS-B (SBFL / FLN)
Sat 01:16:19 PM 45.4207 -124.2334 157° South 293 337 15,000 173 Climbing FlightAware ADS-B (SBFL / FLN)
Sat 01:17:29 PM 45.3533 -124.1915 155° Southeast 275 316 13,100 -1,663 Descending FlightAware ADS-B (SBFL / FLN)
Sat 01:18:00 PM 45.3014 -124.1567 154° Southeast 267 307 12,200 -1,091 Descending FlightAware ADS-B (SBFL / FLN)
Sat 01:18:46 PM 45.2597 -124.1268 152° Southeast 217 250 11,700 -1,933 Descending FlightAware ADS-B (SBFL / FLN)
Sat 01:19:30 PM 45.2238 -124.1009 155° Southeast 239 275 9,300 438 Descending FlightAware ADS-B (SBFL / FLN)
Sat 01:22:39 PM 45.1612 -123.8870 13° North 302 348 13,400 1,373 Climbing FlightAware ADS-B
Sat 01:22:51 PM 45.1771 -123.8841 North 299 344 13,900 2,229 Climbing FlightAware ADS-B (SBFL / FLN)
Sat 01:23:14 PM 45.2094 -123.8800 North 296 341 14,700 1,333 Climbing FlightAware ADS-B
Sat 01:23:27 PM 45.2223 -123.8781 North 292 336 14,700 103 Level FlightAware ADS-B (SBFL / FLN)
Sat 01:24:12 PM 45.2806 -123.8715 North 298 343 14,800 -659 Climbing FlightAware ADS-B (SBFL / FLN)
Sat 01:24:49 PM 45.3368 -123.8651 North 291 335 13,800 -1,273 Descending FlightAware ADS-B (SBFL / FLN)
Sat 01:25:51 PM 45.4080 -123.8552 North 239 275 12,700 -2,242 Descending FlightAware ADS-B (SBFL / FLN)
Sat 01:26:28 PM 45.4550 -123.8499 North 295 339 10,100 -825 Descending FlightAware ADS-B (SBFL / FLN)
Sat 01:27:11 PM 45.5142 -123.8480 North 279 321 11,600 1,833 Climbing FlightAware ADS-B (SBFL / FLN)
Sat 01:27:40 PM 45.5525 -123.8470 North 283 326 12,300 1,650 Climbing FlightAware ADS-B
Sat 01:27:51 PM 45.5585 -123.8473 359° North 288 331 12,700 2,357 Climbing FlightAware ADS-B (SBFL / FLN)
Sat 01:28:08 PM 45.5891 -123.8480 359° North 288 331 13,400 2,769 Climbing FlightAware ADS-B
Sat 01:28:17 PM 45.6003 -123.8480 North 283 326 13,900 3,857 Climbing FlightAware ADS-B
Sat 01:28:22 PM 45.6061 -123.8478 North 279 321 14,300 1,688 Climbing FlightAware ADS-B (SBFL / FLN)
Sat 01:28:49 PM 45.6422 -123.8470 North 274 315 14,800 490 Climbing FlightAware ADS-B
Sat 01:29:11 PM 45.6492 -123.8465 North 279 321 14,700 -102 Descending FlightAware ADS-B (SBFL / FLN)
Sat 01:29:48 PM 45.7193 -123.8380 24° Northeast 320 368 14,700  Level FlightAware ADS-B
Sat 01:29:51 PM 45.7227 -123.8356 30° Northeast 325 374 14,700  Level FlightAware ADS-B (SBFL / FLN)
Sat 01:29:52 PM 45.7244 -123.8340 31° Northeast 327 376 14,700  Level FlightAware ADS-B
Sat 01:29:58 PM 45.7314 -123.8260 40° Northeast 336 387 14,700  Level FlightAware ADS-B
Sat 01:30:05 PM 45.7382 -123.8140 54° Northeast 346 398 14,700  Level FlightAware ADS-B
Sat 01:30:08 PM 45.7406 -123.8080 59° Northeast 348 400 14,700  Level FlightAware ADS-B
Sat 01:30:15 PM 45.7448 -123.7930 72° East 352 405 14,700  Level FlightAware ADS-B
Sat 01:30:22 PM 45.7468 -123.7760 84° East 353 406 14,700  Level FlightAware ADS-B
Sat 01:30:28 PM 45.7466 -123.7620 94° East 353 406 14,700  Level FlightAware ADS-B
Sat 01:30:32 PM 45.7395 -123.8107 103° East 352 405 14,700  Level FlightAware ADS-B (SBFL / FLN)
Sat 01:30:34 PM 45.7445 -123.7490 104° East 352 405 14,700  Level FlightAware ADS-B
Sat 01:30:41 PM 45.7399 -123.7340 116° Southeast 348 400 14,700  Level FlightAware ADS-B
Sat 01:30:49 PM 45.7321 -123.7190 129° Southeast 344 396 14,700  Level FlightAware ADS-B
Sat 01:30:51 PM 45.7312 -123.7173 136° Southeast 340 391 14,700  Level FlightAware ADS-B (SBFL / FLN)
Sat 01:30:55 PM 45.7252 -123.7100 141° Southeast 337 388 14,700  Level FlightAware ADS-B
Sat 01:31:00 PM 45.7181 -123.7040 152° Southeast 331 381 14,700  Level FlightAware ADS-B
Sat 01:31:06 PM 45.7096 -123.7000 163° South 324 373 14,700  Level FlightAware ADS-B
Sat 01:31:11 PM 45.7026 -123.6980 172° South 319 367 14,700  Level FlightAware ADS-B
Sat 01:31:41 PM 45.6602 -123.6980 181° South 309 356 14,700  Level FlightAware ADS-B
Sat 01:31:52 PM 45.6504 -123.6986 182° South 295 339 14,700 -122 Level FlightAware ADS-B (SBFL / FLN)
Sat 01:32:30 PM 45.6007 -123.7006 181° South 265 305 14,600 -676 Descending FlightAware ADS-B (SBFL / FLN)
Sat 01:33:03 PM 45.5560 -123.7020 181° South 261 300 13,900 -1,350 Descending FlightAware ADS-B
Sat 01:33:10 PM 45.5502 -123.7016 181° South 259 298 13,700 -1,500 Descending FlightAware ADS-B (SBFL / FLN)
Sat 01:33:15 PM 45.5419 -123.7020 184° South 258 297 13,600 -1,579 Descending FlightAware ADS-B
Sat 01:33:29 PM 45.5275 -123.7110 217° Southwest 243 280 13,200 -1,304 Descending FlightAware ADS-B
Sat 01:33:38 PM 45.5218 -123.7220 237° Southwest 234 269 13,100 -273 Descending FlightAware ADS-B
Sat 01:33:51 PM 45.5209 -123.7414 283° West 223 257 13,100 -333 Level FlightAware ADS-B (SBFL / FLN)
Sat 01:33:56 PM 45.5229 -123.7480 252° West 229 264 13,000 -1,091 Descending FlightAware ADS-B
Sat 01:34:02 PM 45.5268 -123.7560 307° West 224 258 12,900 -1,286 Descending FlightAware ADS-B
Sat 01:34:10 PM 45.5252 -123.7533 335° Northwest 228 262 12,700 -2,500 Descending FlightAware ADS-B (SBFL / FLN)
Sat 01:34:50 PM 45.5812 -123.7889 338° Northwest 306 352 10,900  Descending FlightAware ADS-B (SBFL / FLN)
Sat 01:35:45 PM 45.6534 -123.8290 339° North 302 348 12,700 2,024 Climbing FlightAware ADS-B
Sat 01:36:13 PM 45.6892 -123.8489 340° North 296 341 13,700 2,372 Climbing FlightAware ADS-B (SBFL / FLN)
Sat 01:36:28 PM 45.7092 -123.8590 339° North 300 345 14,400 947 Climbing FlightAware ADS-B
Sat 01:36:51 PM 45.7365 -123.8730 339° North 273 314 14,300 -250 Descending FlightAware ADS-B
Sat 01:36:52 PM 45.7372 -123.8739 337° Northwest 271 312 14,300 -2,914 Level FlightAware ADS-B (SBFL / FLN)
Sat 01:37:26 PM 45.7714 -123.8974 338° Northwest 270 311 12,600 -2,557 Descending FlightAware ADS-B (SBFL / FLN)
Sat 01:37:53 PM 45.8084 -123.9022 22° Northeast 286 329 11,700 -2,372 Descending FlightAware ADS-B (SBFL / FLN)
Sat 01:38:09 PM 45.8226 -123.8845 60° Northeast 275 316 10,900 -4,054 Descending FlightAware ADS-B (SBFL / FLN)
Sat 01:38:30 PM 45.8337 -123.8473 69° East 296 341 9,200 -2,488 Descending FlightAware ADS-B (SBFL / FLN)
Sat 01:38:50 PM 45.8419 -123.8154 70° East 326 375 9,200 1,143 Level FlightAware ADS-B (SBFL / FLN)
Sat 01:39:12 PM 45.8564 -123.7581 70° East 325 374 10,000 2,000 Climbing FlightAware ADS-B (SBFL / FLN)
Sat 01:39:23 PM 45.8616 -123.7370 71° East 325 374 10,300 1,800 Climbing FlightAware ADS-B
Sat 01:39:32 PM 45.8642 -123.7178 85° East 329 379 10,600 2,182 Climbing FlightAware ADS-B (SBFL / FLN)
Sat 01:39:45 PM 45.8616 -123.6880 105° East 326 375 11,100 2,400 Climbing FlightAware ADS-B
Sat 01:39:52 PM 45.8583 -123.6775 120° Southeast 317 365 11,400 2,727 Climbing FlightAware ADS-B (SBFL / FLN)
Sat 01:39:56 PM 45.8540 -123.6680 125° Southeast 314 361 11,600 2,400 Climbing FlightAware ADS-B
Sat 01:40:02 PM 45.8485 -123.6600 136° Southeast 308 354 11,800 2,500 Climbing FlightAware ADS-B
Sat 01:40:08 PM 45.8416 -123.6530 147° Southeast 302 348 12,100 2,400 Climbing FlightAware ADS-B
Sat 01:40:12 PM 45.8370 -123.6494 156° South 297 342 12,200 2,000 Climbing FlightAware ADS-B (SBFL / FLN)
Sat 01:40:14 PM 45.8344 -123.6480 158° South 296 341 12,300 2,571 Climbing FlightAware ADS-B
Sat 01:40:19 PM 45.8274 -123.6450 163° South 294 338 12,500 2,160 Climbing FlightAware ADS-B
Sat 01:40:39 PM 45.8009 -123.6340 168° South 297 342 13,200 2,400 Climbing FlightAware ADS-B
Sat 01:40:44 PM 45.7943 -123.6330 177° South 288 331 13,500 3,333 Climbing FlightAware ADS-B
Sat 01:40:48 PM 45.7898 -123.6340 183° South 284 327 13,700 3,000 Climbing FlightAware ADS-B
Sat 01:40:52 PM 45.7836 -123.6346 189° South 280 322 13,900 2,000 Climbing FlightAware ADS-B (SBFL / FLN)
Sat 01:41:18 PM 45.7504 -123.6430 190° South 295 339 14,700 1,200 Climbing FlightAware ADS-B
Sat 01:41:32 PM 45.7358 -123.6464 190° South 297 342 14,700  Level FlightAware ADS-B (SBFL / FLN)
Sat 01:41:48 PM 45.7097 -123.6530 190° South 294 338 14,700  Level FlightAware ADS-B
Sat 01:42:13 PM 45.6861 -123.6590 190° South 294 338 14,700  Level FlightAware ADS-B (SBFL / FLN)
Sat 01:42:22 PM 45.6634 -123.6650 190° South 294 338 14,700 667 Level FlightAware ADS-B
Sat 01:42:40 PM 45.6420 -123.6740 204° Southwest 277 319 15,000 857 Climbing FlightAware ADS-B
Sat 01:42:43 PM 45.6386 -123.6770 212° Southwest 274 315 15,000 923 Level FlightAware ADS-B
Sat 01:42:53 PM 45.6302 -123.6883 233° Southwest 269 310 15,200 1,091 Climbing FlightAware ADS-B (SBFL / FLN)
Sat 01:42:54 PM 45.6292 -123.6900 235° Southwest 269 310 15,200 1,200 Level FlightAware ADS-B
Sat 01:42:58 PM 45.6266 -123.6980 244° Southwest 269 310 15,300 1,200 Climbing FlightAware ADS-B
Sat 01:43:04 PM 45.6247 -123.7080 258° West 270 311 15,400 1,091 Climbing FlightAware ADS-B
Sat 01:43:09 PM 45.6245 -123.7170 267° West 272 313 15,500 1,500 Climbing FlightAware ADS-B
Sat 01:43:12 PM 45.6245 -123.7162 275° West 274 315 15,600 1,500 Climbing FlightAware ADS-B (SBFL / FLN)
Sat 01:43:13 PM 45.6251 -123.7240 277° West 275 316 15,600 1,385 Level FlightAware ADS-B
Sat 01:43:25 PM 45.6281 -123.7460 279° West 279 321 15,900 1,304 Climbing FlightAware ADS-B
Sat 01:43:36 PM 45.6305 -123.7650 283° West 286 329 16,100 1,125 Climbing FlightAware ADS-B
Sat 01:43:41 PM 45.6325 -123.7740 289° West 292 336 16,200 600 Climbing FlightAware ADS-B
Sat 01:43:46 PM 45.6353 -123.7830 296° West 300 345 16,200  Level FlightAware ADS-B
Sat 01:43:52 PM 45.6402 -123.7940 304° West 311 358 16,200  Level FlightAware ADS-B
Sat 01:43:58 PM 45.6462 -123.8040 314° West 327 376 16,200 -400 Level FlightAware ADS-B
Sat 01:44:07 PM 45.6579 -123.8160 326° Northwest 348 400 16,100 -1,000 Descending FlightAware ADS-B
Sat 01:44:10 PM 45.6627 -123.8190 334° Northwest 358 412 16,000 -1,200 Descending FlightAware ADS-B
Sat 01:44:17 PM 45.6736 -123.8240 344° North 370 426 15,900 -857 Descending FlightAware ADS-B
Sat 01:44:24 PM 45.6858 -123.8260 355° North 381 438 15,800 -1,000 Descending FlightAware ADS-B
Sat 01:44:29 PM 45.6944 -123.8260 North 388 447 15,700 -857 Descending FlightAware ADS-B
Sat 01:44:31 PM 45.6908 -123.8264 North 391 450 15,700  Level FlightAware ADS-B (SBFL / FLN)
Sat 01:44:49 PM 45.7280 -123.8090 26° Northeast 406 467 15,700  Level FlightAware ADS-B
Sat 01:44:50 PM 45.7291 -123.8083 26° Northeast 407 468 15,700  Level FlightAware ADS-B (SBFL / FLN)
Sat 01:45:19 PM 45.7786 -123.7720 28° Northeast 402 463 15,700  Level FlightAware ADS-B
Sat 01:45:50 PM 45.8291 -123.7340 27° Northeast 399 459 15,700  Level FlightAware ADS-B
Sat 01:45:53 PM 45.8265 -123.7362 27° Northeast 399 459 15,700  Level FlightAware ADS-B (SBFL / FLN)
Sat 01:46:20 PM 45.8797 -123.6980 27° Northeast 398 458 15,700  Level FlightAware ADS-B
Sat 01:46:33 PM 45.8969 -123.6854 27° Northeast 398 458 15,700  Level FlightAware ADS-B (SBFL / FLN)
Sat 01:46:51 PM 45.9299 -123.6620 26° Northeast 398 458 15,700  Level FlightAware ADS-B
Sat 01:47:10 PM 45.9592 -123.6410 26° Northeast 398 458 15,700  Level FlightAware ADS-B (SBFL / FLN)
Sat 01:47:21 PM 45.9797 -123.6270 26° Northeast 399 459 15,700  Level FlightAware ADS-B
Sat 01:47:51 PM 46.0297 -123.5910 26° Northeast 400 460 15,700  Level FlightAware ADS-B
Sat 01:48:21 PM 46.0798 -123.5550 27° Northeast 401 461 15,700  Level FlightAware ADS-B
Sat 01:48:52 PM 46.1298 -123.5190 27° Northeast 404 465 15,700  Level FlightAware ADS-B
Sat 01:49:22 PM 46.1806 -123.4830 27° Northeast 405 466 15,700  Level FlightAware ADS-B
Sat 01:49:52 PM 46.2312 -123.4460 27° Northeast 405 466 15,700  Level FlightAware ADS-B
Sat 01:50:22 PM 46.2817 -123.4090 27° Northeast 406 467 15,700  Level FlightAware ADS-B
Sat 01:50:52 PM 46.3324 -123.3730 27° Northeast 405 466 15,700  Level FlightAware ADS-B
Sat 01:51:23 PM 46.3832 -123.3360 27° Northeast 404 465 15,700  Level FlightAware ADS-B
Sat 01:51:53 PM 46.4336 -123.2990 27° Northeast 403 464 15,700  Level FlightAware ADS-B
Sat 01:52:24 PM 46.4847 -123.2620 27° Northeast 402 463 15,700  Level FlightAware ADS-B
Sat 01:52:54 PM 46.5356 -123.2240 27° Northeast 407 468 15,700  Level FlightAware ADS-B
Sat 01:53:25 PM 46.5867 -123.1840 30° Northeast 418 481 15,700  Level FlightAware ADS-B
Sat 01:53:40 PM 46.6126 -123.1610 32° Northeast 423 487 15,700  Level FlightAware ADS-B
Sat 01:54:10 PM 46.6619 -123.1150 33° Northeast 423 487 15,700  Level FlightAware ADS-B
Sat 01:54:41 PM 46.7126 -123.0670 33° Northeast 420 483 15,700  Level FlightAware ADS-B
Sat 01:55:11 PM 46.7616 -123.0210 33° Northeast 422 486 15,700 -197 Level FlightAware ADS-B
Sat 01:55:42 PM 46.8112 -122.9740 33° Northeast 422 486 15,500 -984 Descending FlightAware ADS-B
Sat 01:56:12 PM 46.8609 -122.9270 33° Northeast 420 483 14,700 -1,700 Descending FlightAware ADS-B
Sat 01:56:42 PM 46.9096 -122.8810 33° Northeast 411 473 13,800 -1,377 Descending FlightAware ADS-B
Sat 01:57:13 PM 46.9573 -122.8350 33° Northeast 400 460 13,300 -787 Descending FlightAware ADS-B
Sat 01:57:43 PM 47.0031 -122.7910 33° Northeast 376 433 13,000 -500 Descending FlightAware ADS-B
Sat 01:58:13 PM 47.0459 -122.7510 33° Northeast 359 413 12,800 -492 Descending FlightAware ADS-B
Sat 01:58:44 PM 47.0878 -122.7110 33° Northeast 354 407 12,500 -590 Descending FlightAware ADS-B
Sat 01:59:14 PM 47.1288 -122.6710 33° Northeast 353 406 12,200 -714 Descending FlightAware ADS-B
Sat 01:59:26 PM 47.1452 -122.6556 33° Northeast 354 407 12,000 -1,000 Descending FlightAware ADS-B (CYVR)
Sat 01:59:44 PM 47.1701 -122.6320 33° Northeast 347 399 11,700 -1,000 Descending FlightAware ADS-B
Sat 02:00:14 PM 47.2088 -122.5940 34° Northeast 336 387 11,200 -1,019 Descending FlightAware ADS-B
Sat 02:00:37 PM 47.2367 -122.5630 40° Northeast 333 383 10,800 -1,132 Descending FlightAware ADS-B
Sat 02:01:07 PM 47.2721 -122.5170 41° Northeast 327 376 10,200 -1,125 Descending FlightAware ADS-B
Sat 02:01:25 PM 47.2915 -122.4920 41° Northeast 324 373 9,900 -1,313 Descending FlightAware ADS-B
Sat 02:01:39 PM 47.3075 -122.4720 40° Northeast 323 372 9,500 -1,765 Descending FlightAware ADS-B
Sat 02:01:42 PM 47.3116 -122.4670 36° Northeast 321 369 9,400 -1,714 Descending FlightAware ADS-B
Sat 02:01:46 PM 47.3164 -122.4630 30° Northeast 319 367 9,300 -1,500 Descending FlightAware ADS-B
Sat 02:01:50 PM 47.3214 -122.4590 25° Northeast 317 365 9,200 -750 Descending FlightAware ADS-B
Sat 02:01:54 PM 47.3266 -122.4570 18° North 312 359 9,200 -857 Level FlightAware ADS-B
Sat 02:01:57 PM 47.3316 -122.4550 12° North 308 354 9,100 -1,000 Descending FlightAware ADS-B
Sat 02:02:00 PM 47.3358 -122.4540 North 305 351 9,100 -1,125 Level FlightAware ADS-B
Sat 02:02:13 PM 47.3540 -122.4510 North 298 343 8,800 -1,241 Descending FlightAware ADS-B
Sat 02:02:29 PM 47.3759 -122.4490 North 297 342 8,500 -1,355 Descending FlightAware ADS-B
Sat 02:02:44 PM 47.3964 -122.4460 North 294 338 8,100 -1,800 Descending FlightAware ADS-B
Sat 02:02:59 PM 47.4169 -122.4440 North 294 338 7,600 -1,862 Descending FlightAware ADS-B
Sat 02:03:13 PM 47.4354 -122.4420 North 294 338 7,200 -1,862 Descending FlightAware ADS-B
Sat 02:03:28 PM 47.4554 -122.4410 North 291 335 6,700 -1,862 Descending FlightAware ADS-B
Sat 02:03:42 PM 47.4746 -122.4390 North 287 330 6,300 -1,935 Descending FlightAware ADS-B
Sat 02:03:59 PM 47.4961 -122.4370 North 284 327 5,700 -2,222 Descending FlightAware ADS-B
Sat 02:04:09 PM 47.5095 -122.4360 North 285 328 5,300 -2,471 Descending FlightAware ADS-B
Sat 02:04:16 PM 47.5189 -122.4350 North 285 328 5,000 -2,667 Descending FlightAware ADS-B
Sat 02:04:27 PM 47.5336 -122.4350 North 289 333 4,500 -2,625 Descending FlightAware ADS-B
Sat 02:04:32 PM 47.5403 -122.4350 359° North 290 334 4,300 -2,667 Descending FlightAware ADS-B
Sat 02:04:36 PM 47.5459 -122.4350 356° North 289 333 4,100 -2,250 Descending FlightAware ADS-B
Sat 02:04:40 PM 47.5514 -122.4360 351° North 284 327 4,000 -1,800 Descending FlightAware ADS-B
Sat 02:04:46 PM 47.5582 -122.4390 344° North 279 321 3,800 -1,200 Descending FlightAware ADS-B
Sat 02:04:50 PM 47.5627 -122.4410 340° North 273 314 3,800  Level FlightAware ADS-B
Sat 02:04:56 PM 47.5697 -122.4450 336° Northwest 263 303 3,800 -500 Level FlightAware ADS-B
Sat 02:05:02 PM 47.5768 -122.4500 335° Northwest 259 298 3,700 -261 Descending FlightAware ADS-B
Sat 02:05:19 PM 47.5941 -122.4630 334° Northwest 246 283 3,700  Level FlightAware ADS-B
Sat 02:05:34 PM 47.6092 -122.4740 334° Northwest 231 266 3,700  Level FlightAware ADS-B
Sat 02:05:50 PM 47.6239 -122.4840 334° Northwest 230 265 3,700  Level FlightAware ADS-B
Sat 02:06:05 PM 47.6384 -122.4950 334° Northwest 231 266 3,700  Level FlightAware ADS-B
Sat 02:06:21 PM 47.6539 -122.5070 333° Northwest 232 267 3,700  Level FlightAware ADS-B
Sat 02:06:33 PM 47.6651 -122.5150 334° Northwest 234 269 3,700 -333 Level FlightAware ADS-B
Sat 02:06:39 PM 47.6709 -122.5190 337° Northwest 236 272 3,600 -1,091 Descending FlightAware ADS-B
Sat 02:06:44 PM 47.6767 -122.5210 347° North 239 275 3,500 -1,000 Descending FlightAware ADS-B
Sat 02:06:51 PM 47.6846 -122.5210 North 242 278 3,400 -857 Descending FlightAware ADS-B
Sat 02:06:58 PM 47.6917 -122.5180 North 242 278 3,300 -1,091 Descending FlightAware ADS-B
Sat 02:07:02 PM 47.6962 -122.5140 33° Northeast 240 276 3,200 -1,333 Descending FlightAware ADS-B
Sat 02:07:07 PM 47.6996 -122.5100 41° Northeast 238 274 3,100 -750 Descending FlightAware ADS-B
Sat 02:07:10 PM 47.7024 -122.5060 47° Northeast 236 272 3,100 -545 Level FlightAware ADS-B
Sat 02:07:18 PM 47.7081 -122.4960 51° Northeast 233 268 3,000 -1,125 Descending FlightAware ADS-B
Sat 02:07:26 PM 47.7133 -122.4860 54° Northeast 232 267 2,800 -1,000 Descending FlightAware ADS-B
Sat 02:07:30 PM 47.7155 -122.4810 58° Northeast 230 265 2,800 -857 Level FlightAware ADS-B
Sat 02:07:33 PM 47.7169 -122.4760 64° Northeast 229 264 2,700 -1,200 Descending FlightAware ADS-B
Sat 02:07:45 PM 47.7183 -122.4600 81° East 220 253 2,500 -1,000 Descending FlightAware ADS-B
Sat 02:07:51 PM 47.7167 -122.4520 109° East 204 235 2,400 -1,333 Descending FlightAware ADS-B
Sat 02:07:54 PM 47.7150 -122.4470 121° Southeast 198 228 2,300 -857 Descending FlightAware ADS-B
Sat 02:08:05 PM 47.7078 -122.4390 155° Southeast 183 211 2,200 -828 Descending FlightAware ADS-B
Sat 02:08:23 PM 47.6928 -122.4370 162° South 181 208 1,900 -529 Descending FlightAware ADS-B
Sat 02:08:39 PM 47.6805 -122.4290 153° Southeast 180 207 1,900  Level FlightAware ADS-B
Sat 02:09:00 PM 47.6652 -122.4170 153° Southeast 181 208 1,900  Level FlightAware ADS-B
Sat 02:09:17 PM 47.6524 -122.4070 150° Southeast 181 208 1,900  Level FlightAware ADS-B
Sat 02:09:34 PM 47.6412 -122.3970 150° Southeast 164 189 1,900 -182 Level FlightAware ADS-B
Sat 02:09:50 PM 47.6305 -122.3880 150° Southeast 163 188 1,800 -414 Descending FlightAware ADS-B
Sat 02:10:03 PM 47.6222 -122.3800 150° Southeast 163 188 1,700 -882 Descending FlightAware ADS-B
Sat 02:10:24 PM 47.6085 -122.3690 150° Southeast 162 186 1,300 -973 Descending FlightAware ADS-B
Sat 02:10:40 PM 47.5991 -122.3610 150° Southeast 151 174 1,100 -882 Descending FlightAware ADS-B
Sat 02:10:58 PM 47.5877 -122.3510 150° Southeast 152 175 800 -563 Descending FlightAware ADS-B
Sat 02:11:44 PM 47.5603 -122.3300 150° Southeast 161 185 500 -556 Descending Seattle Center
Sat 02:11:52 PM 47.5547 -122.3239 143° Southeast 156 180 300 13,478 Descending Seattle Center
Sat 02:12:53 PM 47.5175 -122.2922 150° Southeast 156 180 16,000 15,443 Climbing Seattle Center
Sat 02:14:00 PM 47.5300 -122.3020 234° Southwest  Level Estimated

Login

Don't have an account? Register now (free) for customized features, flight alerts, and more!